Time;durP1;ratioP1;P1;durP2;ratioP2;P2;SDS_P1;SDS_P2;PMS_P1;PMS_P2;Temp;Humidity;BMP_temperature;BMP_pressure;BME280_temperature;BME280_humidity;BME280_pressure;Samples;Min_cycle;Max_cycle;Signal;HPM_P1;HPM_P2
2023/10/23 00:00:57;;;;;;;;;;;;;;;14.22;92.19;99397.81;5033836;28;19913;-77
2023/10/23 00:03:22;;;;;;;;;;;;;;;14.06;93.45;99397.78;5023228;28;20024;-77
2023/10/23 00:05:48;;;;;;;;;;;;;;;14.29;92.39;99397.97;5033952;28;19972;-77
2023/10/23 00:08:13;;;;;;;;;;;;;;;14.45;91.19;99391.56;5024101;28;19922;-77
2023/10/23 00:10:38;;;;;;;;;;;;;;;14.49;90.47;99395.28;5014069;28;19976;-77
2023/10/23 00:13:04;;;;;;;;;;;;;;;14.65;89.88;99388.81;5029149;28;20020;-77
2023/10/23 00:15:29;;;;;;;;;;;;;;;14.86;88.31;99392.19;5013931;28;20014;-77
2023/10/23 00:17:54;;;;;;;;;;;;;;;14.80;87.62;99390.00;5020044;28;19921;-77
2023/10/23 00:20:20;;;;;;;;;;;;;;;14.65;87.95;99398.09;5033592;28;19971;-77
2023/10/23 00:22:45;;;;;;;;;;;;;;;14.29;89.83;99397.19;5030211;28;19925;-77
2023/10/23 00:25:10;;;;;;;;;;;;;;;14.37;90.34;99401.81;5022073;28;19918;-77
2023/10/23 00:27:36;;;;;;;;;;;;;;;14.28;90.48;99406.81;5026022;28;19917;-77
2023/10/23 00:30:01;;;;;;;;;;;;;;;14.22;91.27;99411.03;5025628;28;19953;-77
2023/10/23 00:32:26;;;;;;;;;;;;;;;14.21;90.76;99412.22;5016300;28;20024;-76
2023/10/23 00:34:52;;;;;;;;;;;;;;;14.25;90.41;99411.16;5028531;28;19924;-77
2023/10/23 00:37:17;;;;;;;;;;;;;;;14.04;91.92;99414.22;5016875;28;19918;-77
2023/10/23 00:39:42;;;;;;;;;;;;;;;14.10;92.10;99420.38;5020699;28;19922;-77
2023/10/23 00:42:08;;;;;;;;;;;;;;;14.23;90.99;99421.94;5022692;28;19917;-77
2023/10/23 00:44:33;;;;;;;;;;;;;;;14.11;91.23;99422.03;5030384;28;19959;-77
2023/10/23 00:46:58;;;;;;;;;;;;;;;14.08;91.49;99426.38;5024804;28;20492;-77
2023/10/23 00:49:24;;;;;;;;;;;;;;;14.14;91.27;99416.50;5013078;28;19922;-77
2023/10/23 00:51:50;;;;;;;;;;;;;;;14.14;91.11;99413.69;5025036;28;20402;-76
2023/10/23 00:54:16;;;;;;;;;;;;;;;14.05;91.81;99410.22;5026060;28;19943;-76
2023/10/23 00:56:41;;;;;;;;;;;;;;;14.26;91.37;99420.41;5018084;28;19917;-76
2023/10/23 00:59:08;;;;;;;;;;;;;;;14.39;90.08;99427.59;5016531;28;19921;-76
2023/10/23 01:01:34;;;;;;;;;;;;;;;14.58;89.65;99423.22;5027764;28;20385;-70
2023/10/23 01:04:01;;;;;;;;;;;;;;;14.73;87.98;99428.09;5021490;28;19987;-71
2023/10/23 01:06:26;;;;;;;;;;;;;;;14.38;89.53;99420.34;5030772;28;19948;-71
2023/10/23 01:08:52;;;;;;;;;;;;;;;14.59;88.33;99427.66;5028278;28;19960;-70
2023/10/23 01:11:17;;;;;;;;;;;;;;;14.38;88.65;99423.16;5016697;28;19925;-71
2023/10/23 01:13:42;;;;;;;;;;;;;;;14.29;89.45;99426.13;5022690;28;19917;-71
2023/10/23 01:16:08;;;;;;;;;;;;;;;14.28;89.61;99424.47;5028293;28;19956;-70
2023/10/23 01:18:33;;;;;;;;;;;;;;;14.25;89.78;99424.41;5012352;28;19921;-71
2023/10/23 01:20:58;;;;;;;;;;;;;;;14.12;90.38;99432.94;5012129;28;19917;-70
2023/10/23 01:23:25;;;;;;;;;;;;;;;14.38;89.56;99428.78;5027024;28;19917;-70
2023/10/23 01:25:50;;;;;;;;;;;;;;;14.55;88.71;99427.59;5014615;28;20337;-70
2023/10/23 01:28:16;;;;;;;;;;;;;;;14.74;87.19;99435.34;5021617;28;19937;-70
2023/10/23 01:30:41;;;;;;;;;;;;;;;14.97;85.93;99434.69;5011797;28;19922;-71
2023/10/23 01:33:06;;;;;;;;;;;;;;;14.96;85.65;99430.25;5018071;28;19921;-71
2023/10/23 01:35:32;;;;;;;;;;;;;;;14.96;85.68;99430.25;5028401;28;20051;-71
2023/10/23 01:37:57;;;;;;;;;;;;;;;15.04;85.33;99422.78;5013037;28;19937;-70
2023/10/23 01:40:22;;;;;;;;;;;;;;;15.13;85.14;99425.38;5017501;28;19921;-71
2023/10/23 01:42:48;;;;;;;;;;;;;;;15.33;84.07;99426.22;5026603;28;19917;-70
2023/10/23 01:45:14;;;;;;;;;;;;;;;15.22;84.35;99430.81;5027554;28;20064;-71
2023/10/23 01:47:39;;;;;;;;;;;;;;;15.07;84.93;99429.66;5011599;28;20446;-71
2023/10/23 01:50:05;;;;;;;;;;;;;;;14.53;87.26;99417.88;5011827;28;19922;-71
2023/10/23 01:52:30;;;;;;;;;;;;;;;14.59;88.20;99413.59;5024718;28;19918;-71
2023/10/23 01:54:55;;;;;;;;;;;;;;;14.87;86.65;99407.09;5012463;28;19921;-71
2023/10/23 01:57:21;;;;;;;;;;;;;;;14.84;86.55;99410.59;5028230;28;19917;-70
2023/10/23 01:59:46;;;;;;;;;;;;;;;14.82;86.59;99412.97;5014898;28;19921;-70
2023/10/23 02:02:11;;;;;;;;;;;;;;;14.96;86.06;99418.16;5030300;28;19972;-70
2023/10/23 02:04:39;;;;;;;;;;;;;;;15.12;85.06;99418.13;5011948;28;20325;-70
2023/10/23 02:07:04;;;;;;;;;;;;;;;14.93;85.00;99414.06;5030460;28;19913;-71
2023/10/23 02:09:30;;;;;;;;;;;;;;;14.79;85.70;99419.34;5027025;28;19968;-71
2023/10/23 02:11:55;;;;;;;;;;;;;;;14.90;86.01;99413.97;5011920;28;20367;-70
2023/10/23 02:14:21;;;;;;;;;;;;;;;15.01;84.99;99413.03;5025348;28;20351;-70
2023/10/23 02:16:46;;;;;;;;;;;;;;;14.66;86.36;99419.41;5031744;28;19913;-70
2023/10/23 02:19:12;;;;;;;;;;;;;;;14.79;85.30;99422.16;5013292;28;19980;-71
2023/10/23 02:21:37;;;;;;;;;;;;;;;14.48;85.98;99429.38;5011919;28;19962;-70
2023/10/23 02:24:02;;;;;;;;;;;;;;;14.16;88.50;99433.81;5011866;28;19917;-70
2023/10/23 02:26:28;;;;;;;;;;;;;;;14.10;88.79;99428.81;5011814;28;19914;-70
2023/10/23 02:28:53;;;;;;;;;;;;;;;14.13;87.70;99428.09;5014086;28;19917;-70
2023/10/23 02:31:19;;;;;;;;;;;;;;;13.73;89.36;99438.25;5010580;28;20416;-70
2023/10/23 02:33:44;;;;;;;;;;;;;;;13.27;93.89;99433.69;5023591;28;19917;-70
2023/10/23 02:36:10;;;;;;;;;;;;;;;13.34;93.54;99436.69;5031503;28;20307;-71
2023/10/23 02:38:35;;;;;;;;;;;;;;;13.58;92.54;99437.03;5017236;28;19984;-70
2023/10/23 02:41:00;;;;;;;;;;;;;;;13.84;91.14;99436.56;5019356;28;19924;-70
2023/10/23 02:43:26;;;;;;;;;;;;;;;13.91;89.97;99430.31;5014126;28;19928;-70
2023/10/23 02:45:51;;;;;;;;;;;;;;;13.85;90.45;99434.56;5022194;28;19975;-70
2023/10/23 02:48:17;;;;;;;;;;;;;;;13.48;92.36;99435.50;5020464;28;19921;-70
2023/10/23 02:50:42;;;;;;;;;;;;;;;13.44;93.92;99437.41;5014500;28;19918;-71
2023/10/23 02:53:08;;;;;;;;;;;;;;;13.28;94.07;99435.31;5011771;28;19918;-71
2023/10/23 02:55:33;;;;;;;;;;;;;;;13.26;94.25;99437.63;5011365;28;19924;-70
2023/10/23 02:57:59;;;;;;;;;;;;;;;13.37;93.26;99446.41;5012610;28;19960;-71
2023/10/23 03:00:24;;;;;;;;;;;;;;;13.26;94.28;99434.81;5020224;28;19921;-70
2023/10/23 03:02:50;;;;;;;;;;;;;;;13.29;93.86;99436.13;5028748;28;19924;-70
2023/10/23 03:05:16;;;;;;;;;;;;;;;13.26;93.67;99440.44;5023461;28;19964;-71
2023/10/23 03:07:41;;;;;;;;;;;;;;;13.30;93.42;99437.75;5019099;28;20448;-71
2023/10/23 03:10:07;;;;;;;;;;;;;;;13.14;94.17;99435.69;5017037;28;19968;-71
2023/10/23 03:12:32;;;;;;;;;;;;;;;13.19;93.42;99437.44;5012222;28;19924;-70
2023/10/23 03:14:57;;;;;;;;;;;;;;;13.13;93.61;99434.03;5018988;28;19925;-71
2023/10/23 03:17:23;;;;;;;;;;;;;;;13.09;93.47;99430.28;5018521;28;20356;-71
2023/10/23 03:19:48;;;;;;;;;;;;;;;13.15;93.72;99439.28;5016356;28;19921;-70
2023/10/23 03:22:13;;;;;;;;;;;;;;;13.19;93.39;99434.63;5029261;28;19917;-71
2023/10/23 03:24:38;;;;;;;;;;;;;;;13.33;92.14;99435.06;5014845;28;19914;-70
2023/10/23 03:27:04;;;;;;;;;;;;;;;13.07;93.77;99429.81;5017207;28;19917;-71
2023/10/23 03:29:29;;;;;;;;;;;;;;;13.11;94.02;99429.94;5014383;28;19917;-70
2023/10/23 03:31:55;;;;;;;;;;;;;;;13.34;92.91;99425.44;5015248;28;20448;-70
2023/10/23 03:34:20;;;;;;;;;;;;;;;13.56;91.32;99425.31;5019794;28;20402;-70
2023/10/23 03:36:45;;;;;;;;;;;;;;;13.55;90.41;99421.69;5034817;28;19971;-70
2023/10/23 03:39:11;;;;;;;;;;;;;;;13.22;92.82;99427.50;5032345;28;19921;-71
2023/10/23 03:41:36;;;;;;;;;;;;;;;13.57;90.90;99430.56;5026432;28;20035;-70
2023/10/23 03:44:02;;;;;;;;;;;;;;;13.22;91.71;99427.50;5016426;28;19917;-71
2023/10/23 03:46:27;;;;;;;;;;;;;;;13.48;91.71;99436.34;5017504;28;20003;-70
2023/10/23 03:48:54;;;;;;;;;;;;;;;13.21;92.57;99440.69;5028288;28;19921;-70
2023/10/23 03:51:20;;;;;;;;;;;;;;;13.43;91.00;99430.94;5014331;28;19989;-71
2023/10/23 03:53:45;;;;;;;;;;;;;;;13.58;90.34;99425.78;5024913;28;19948;-71
2023/10/23 03:56:11;;;;;;;;;;;;;;;13.54;89.96;99425.69;5018317;28;19916;-70
2023/10/23 03:58:36;;;;;;;;;;;;;;;13.23;92.32;99426.31;5029733;28;19925;-71
2023/10/23 04:01:02;;;;;;;;;;;;;;;13.08;92.14;99419.44;5033880;28;19913;-71
2023/10/23 04:03:28;;;;;;;;;;;;;;;13.12;91.80;99421.19;5021828;28;19917;-70
2023/10/23 04:05:53;;;;;;;;;;;;;;;12.97;91.37;99419.91;5014061;28;20407;-71
2023/10/23 04:08:18;;;;;;;;;;;;;;;12.87;93.02;99418.41;5014143;28;19921;-70
2023/10/23 04:10:47;;;;;;;;;;;;;;;12.77;93.19;99416.88;5028536;28;19963;-70
2023/10/23 04:13:13;;;;;;;;;;;;;;;12.83;92.79;99425.88;5038011;28;19917;-70
2023/10/23 04:15:39;;;;;;;;;;;;;;;12.83;92.87;99425.06;5032696;28;20451;-71
2023/10/23 04:18:04;;;;;;;;;;;;;;;13.14;91.66;99429.22;5032577;28;20375;-70
2023/10/23 04:20:30;;;;;;;;;;;;;;;13.10;91.07;99431.94;5032249;28;20374;-70
2023/10/23 04:22:55;;;;;;;;;;;;;;;13.40;90.64;99445.69;5025928;28;20396;-72
2023/10/23 04:25:20;;;;;;;;;;;;;;;13.65;89.37;99444.84;5028777;28;19925;-70
2023/10/23 04:27:46;;;;;;;;;;;;;;;13.62;88.15;99447.16;5028647;28;19944;-71
2023/10/23 04:30:11;;;;;;;;;;;;;;;13.23;90.23;99445.97;5031479;28;19936;-72
2023/10/23 04:32:37;;;;;;;;;;;;;;;13.41;90.05;99452.13;5015901;28;20347;-71
2023/10/23 04:35:02;;;;;;;;;;;;;;;13.06;91.90;99462.72;5025567;28;20421;-71
2023/10/23 04:37:27;;;;;;;;;;;;;;;13.15;91.68;99458.94;5030266;28;19917;-72
2023/10/23 04:39:53;;;;;;;;;;;;;;;13.27;90.55;99456.16;5032195;28;20006;-71
2023/10/23 04:42:18;;;;;;;;;;;;;;;13.36;90.66;99466.41;5026882;28;19921;-72
2023/10/23 04:44:46;;;;;;;;;;;;;;;13.48;89.28;99467.25;5020360;28;19987;-72
2023/10/23 04:47:11;;;;;;;;;;;;;;;13.51;88.78;99465.69;5026551;28;19917;-72
2023/10/23 04:49:36;;;;;;;;;;;;;;;13.15;89.16;99464.56;5013356;28;20446;-72
2023/10/23 04:52:02;;;;;;;;;;;;;;;13.38;88.22;99470.50;5013189;28;19913;-72
2023/10/23 04:54:27;;;;;;;;;;;;;;;13.34;87.51;99472.41;5028904;28;19959;-72
2023/10/23 04:56:52;;;;;;;;;;;;;;;13.16;88.53;99472.66;5031856;28;19913;-72
2023/10/23 04:59:17;;;;;;;;;;;;;;;13.05;89.22;99474.28;5015915;28;19921;-72
2023/10/23 05:01:43;;;;;;;;;;;;;;;12.90;90.46;99487.03;5025800;28;20012;-72
2023/10/23 05:04:08;;;;;;;;;;;;;;;12.63;92.16;99494.97;5024996;28;20015;-72
2023/10/23 05:06:33;;;;;;;;;;;;;;;12.83;92.44;99495.25;5031675;28;19940;-72
2023/10/23 05:08:59;;;;;;;;;;;;;;;13.26;90.35;99488.19;5026226;28;19916;-72
2023/10/23 05:11:24;;;;;;;;;;;;;;;13.48;88.57;99486.91;5012034;28;20098;-72
2023/10/23 05:13:50;;;;;;;;;;;;;;;13.52;88.26;99484.22;5015020;28;19929;-72
2023/10/23 05:16:15;;;;;;;;;;;;;;;13.71;87.49;99488.38;5024672;28;19923;-72
2023/10/23 05:18:40;;;;;;;;;;;;;;;13.88;86.59;99495.69;5024350;28;19929;-72
2023/10/23 05:21:07;;;;;;;;;;;;;;;14.01;85.48;99500.09;5024317;28;19925;-72
2023/10/23 05:23:32;;;;;;;;;;;;;;;13.73;86.66;99502.88;5021935;28;20385;-72
2023/10/23 05:25:57;;;;;;;;;;;;;;;13.90;85.93;99502.63;5015476;28;19917;-72
2023/10/23 05:28:22;;;;;;;;;;;;;;;13.82;85.93;99503.56;5019796;28;19928;-72
2023/10/23 05:30:51;;;;;;;;;;;;;;;13.68;87.25;99503.94;5025985;28;19917;-70
2023/10/23 05:33:16;;;;;;;;;;;;;;;13.62;87.22;99506.19;5024225;28;19921;-74
2023/10/23 05:35:41;;;;;;;;;;;;;;;13.85;86.55;99513.28;5016123;28;19940;-74
2023/10/23 05:38:07;;;;;;;;;;;;;;;13.60;87.99;99508.53;5028601;28;20018;-73
2023/10/23 05:40:32;;;;;;;;;;;;;;;13.56;88.24;99513.25;5023767;28;19917;-74
2023/10/23 05:42:57;;;;;;;;;;;;;;;13.92;87.45;99523.94;5024017;28;19975;-77
2023/10/23 05:45:23;;;;;;;;;;;;;;;14.11;86.19;99518.44;5029052;28;19999;-71
2023/10/23 05:47:48;;;;;;;;;;;;;;;13.82;88.03;99522.44;5023842;28;20012;-74
2023/10/23 05:50:13;;;;;;;;;;;;;;;13.75;88.98;99523.84;5030724;28;19921;-72
2023/10/23 05:52:38;;;;;;;;;;;;;;;13.96;88.49;99520.06;5034123;28;20407;-76
2023/10/23 05:55:04;;;;;;;;;;;;;;;13.90;88.91;99518.66;5015001;28;19960;-75
2023/10/23 05:57:30;;;;;;;;;;;;;;;14.25;87.51;99522.88;5028249;28;19917;-70
2023/10/23 05:59:55;;;;;;;;;;;;;;;14.50;86.26;99519.94;5031600;28;19952;-73
2023/10/23 06:02:20;;;;;;;;;;;;;;;14.37;86.55;99528.44;5024064;28;19996;-71
2023/10/23 06:04:46;;;;;;;;;;;;;;;14.60;85.81;99527.84;5011852;28;19928;-69
2023/10/23 06:07:12;;;;;;;;;;;;;;;14.62;86.10;99528.28;5011621;28;19924;-75
2023/10/23 06:09:37;;;;;;;;;;;;;;;14.89;84.25;99522.97;5029921;28;19917;-73
2023/10/23 06:12:04;;;;;;;;;;;;;;;14.99;84.68;99528.06;5022879;28;20021;-72
2023/10/23 06:14:29;;;;;;;;;;;;;;;15.29;83.86;99526.78;5022140;28;19921;-70
2023/10/23 06:16:55;;;;;;;;;;;;;;;15.25;84.50;99526.69;5011594;28;19928;-71
2023/10/23 06:19:20;;;;;;;;;;;;;;;15.49;83.49;99527.66;5027071;28;19925;-73
2023/10/23 06:21:45;;;;;;;;;;;;;;;15.53;84.17;99537.00;5024811;28;19960;-72
2023/10/23 06:24:10;;;;;;;;;;;;;;;15.44;84.77;99533.53;5028408;28;19928;-73
2023/10/23 06:26:36;;;;;;;;;;;;;;;15.61;84.66;99535.16;5026635;28;19929;-73
2023/10/23 06:29:01;;;;;;;;;;;;;;;15.72;84.20;99541.03;5027791;28;19967;-74
2023/10/23 06:31:27;;;;;;;;;;;;;;;15.76;84.75;99541.13;5020203;28;20425;-74
2023/10/23 06:33:53;;;;;;;;;;;;;;;16.06;84.04;99540.59;5022341;28;20423;-74
2023/10/23 06:36:18;;;;;;;;;;;;;;;16.21;82.81;99541.72;5024569;28;19975;-74
2023/10/23 06:38:43;;;;;;;;;;;;;;;16.53;81.99;99536.69;5026068;28;20280;-74
2023/10/23 06:41:09;;;;;;;;;;;;;;;16.77;80.19;99531.88;5018610;28;19988;-74
2023/10/23 06:43:37;;;;;;;;;;;;;;;16.52;80.75;99534.22;5022429;28;20059;-74
2023/10/23 06:46:03;;;;;;;;;;;;;;;16.69;80.15;99528.13;5020297;28;19971;-74
2023/10/23 06:48:29;;;;;;;;;;;;;;;16.80;79.33;99530.31;5014432;28;20392;-74
2023/10/23 06:50:54;;;;;;;;;;;;;;;17.01;78.41;99531.91;5029679;28;19921;-74
2023/10/23 06:53:20;;;;;;;;;;;;;;;17.17;77.60;99529.78;5029849;28;19917;-74
2023/10/23 06:55:48;;;;;;;;;;;;;;;17.30;77.13;99532.38;5025650;28;20044;-74
2023/10/23 06:58:14;;;;;;;;;;;;;;;17.42;76.49;99522.88;5025049;28;19992;-74
2023/10/23 07:00:39;;;;;;;;;;;;;;;17.53;75.65;99529.50;5013817;28;19921;-74
2023/10/23 07:03:05;;;;;;;;;;;;;;;17.73;74.82;99527.34;5021777;28;19928;-72
2023/10/23 07:05:30;;;;;;;;;;;;;;;17.70;74.19;99524.50;5026629;28;19921;-74
2023/10/23 07:07:55;;;;;;;;;;;;;;;17.81;74.50;99519.81;5022949;28;19967;-74
2023/10/23 07:10:20;;;;;;;;;;;;;;;17.96;73.08;99517.97;5021326;28;20404;-74
2023/10/23 07:12:46;;;;;;;;;;;;;;;17.96;73.58;99515.13;5015597;28;19922;-74
2023/10/23 07:15:11;;;;;;;;;;;;;;;18.13;72.21;99512.97;5030972;28;19917;-73
2023/10/23 07:17:36;;;;;;;;;;;;;;;18.23;72.40;99517.94;5025395;28;20433;-73
2023/10/23 07:20:02;;;;;;;;;;;;;;;18.35;70.31;99512.03;5029655;28;19970;-74
2023/10/23 07:22:27;;;;;;;;;;;;;;;18.55;70.01;99508.97;5028631;28;20383;-74
2023/10/23 07:24:56;;;;;;;;;;;;;;;18.75;69.27;99505.94;5030631;28;19920;-74
2023/10/23 07:27:21;;;;;;;;;;;;;;;18.90;67.66;99502.03;5026524;28;19925;-74
2023/10/23 07:29:47;;;;;;;;;;;;;;;18.85;67.72;99505.22;5017611;28;20335;-74
2023/10/23 07:32:12;;;;;;;;;;;;;;;19.10;66.83;99506.66;5022423;28;19914;-74
2023/10/23 07:34:38;;;;;;;;;;;;;;;19.37;65.73;99507.28;5023138;28;19924;-74
2023/10/23 07:37:03;;;;;;;;;;;;;;;19.63;64.41;99511.09;5019252;28;19917;-74
2023/10/23 07:39:29;;;;;;;;;;;;;;;19.56;63.80;99513.91;5013872;28;20012;-73
2023/10/23 07:41:54;;;;;;;;;;;;;;;19.55;63.00;99513.06;5015898;28;20004;-73
2023/10/23 07:44:20;;;;;;;;;;;;;;;19.52;62.89;99515.88;5024237;28;19968;-73
2023/10/23 07:46:46;;;;;;;;;;;;;;;19.62;63.30;99512.31;5037360;28;19963;-73
2023/10/23 07:49:11;;;;;;;;;;;;;;;19.78;62.52;99520.50;5021949;28;20415;-73
2023/10/23 07:51:38;;;;;;;;;;;;;;;19.77;61.80;99508.31;5033867;28;19927;-73
2023/10/23 07:54:03;;;;;;;;;;;;;;;19.99;61.40;99514.16;5021790;28;19939;-73
2023/10/23 07:56:28;;;;;;;;;;;;;;;20.13;61.18;99506.91;5021776;28;20428;-73
2023/10/23 07:58:54;;;;;;;;;;;;;;;20.33;59.77;99510.22;5013807;28;19971;-73
2023/10/23 08:01:19;;;;;;;;;;;;;;;20.46;59.16;99510.66;5014657;28;19922;-73
2023/10/23 08:03:44;;;;;;;;;;;;;;;20.34;60.21;99512.66;5032420;28;20384;-73
2023/10/23 08:06:10;;;;;;;;;;;;;;;20.24;59.51;99513.44;5017369;28;19921;-73
2023/10/23 08:08:36;;;;;;;;;;;;;;;20.61;58.64;99511.50;5017828;28;19956;-73
2023/10/23 08:11:05;;;;;;;;;;;;;;;20.86;59.74;99502.25;5017888;28;19967;-73
2023/10/23 08:13:31;;;;;;;;;;;;;;;21.07;58.92;99501.44;5013137;28;19921;-72
2023/10/23 08:15:56;;;;;;;;;;;;;;;21.29;56.81;99495.72;5026974;28;19921;-72
2023/10/23 08:18:21;;;;;;;;;;;;;;;21.16;57.25;99493.31;5020162;28;19994;-73
2023/10/23 08:20:47;;;;;;;;;;;;;;;21.04;57.62;99502.25;5017196;28;19964;-71
2023/10/23 08:23:12;;;;;;;;;;;;;;;20.96;57.70;99500.59;5015644;28;20447;-72
2023/10/23 08:25:38;;;;;;;;;;;;;;;21.33;57.26;99502.22;5030386;28;20019;-72
2023/10/23 08:28:03;;;;;;;;;;;;;;;21.66;57.16;99503.00;5027508;28;20373;-72
2023/10/23 08:30:28;;;;;;;;;;;;;;;21.90;56.32;99502.50;5019882;28;19924;-74
2023/10/23 08:32:54;;;;;;;;;;;;;;;21.95;55.32;99502.91;5018489;28;19917;-73
2023/10/23 08:35:19;;;;;;;;;;;;;;;22.31;54.60;99496.25;5031555;28;19921;-74
2023/10/23 08:37:44;;;;;;;;;;;;;;;22.42;52.91;99499.84;5031561;28;20393;-76
2023/10/23 08:40:10;;;;;;;;;;;;;;;22.56;53.00;99503.88;5028851;28;19925;-75
2023/10/23 08:42:36;;;;;;;;;;;;;;;22.76;53.35;99498.44;5027058;28;19988;-72
2023/10/23 08:45:02;;;;;;;;;;;;;;;22.64;52.02;99496.91;5027119;28;19925;-70
2023/10/23 08:47:27;;;;;;;;;;;;;;;22.85;51.74;99495.09;5032708;28;19924;-71
2023/10/23 08:49:54;;;;;;;;;;;;;;;22.97;51.75;99494.59;5028854;28;19921;-72
2023/10/23 08:52:21;;;;;;;;;;;;;;;23.12;50.35;99486.75;5023043;28;19918;-75
2023/10/23 08:54:50;;;;;;;;;;;;;;;23.32;52.11;99494.75;5015920;28;19917;-77
2023/10/23 08:57:17;;;;;;;;;;;;;;;23.39;50.26;99491.03;5026607;28;19917;-75
2023/10/23 08:59:43;;;;;;;;;;;;;;;23.50;50.30;99482.34;5027909;28;19918;-72
2023/10/23 09:02:08;;;;;;;;;;;;;;;23.15;50.15;99473.69;5019040;28;20379;-74
2023/10/23 09:04:34;;;;;;;;;;;;;;;22.95;51.23;99473.47;5028299;28;19921;-78
2023/10/23 09:07:00;;;;;;;;;;;;;;;23.38;50.83;99463.72;5017073;28;19988;-74
2023/10/23 09:09:25;;;;;;;;;;;;;;;23.65;51.07;99461.00;5022134;28;20016;-76
2023/10/23 09:11:50;;;;;;;;;;;;;;;23.81;49.83;99459.56;5023382;28;20005;-73
2023/10/23 09:14:26;;;;;;;;;;;;;;;23.89;49.72;99457.44;5025946;28;20466;-74
2023/10/23 09:16:52;;;;;;;;;;;;;;;23.88;48.56;99450.09;5022829;28;19928;-73
2023/10/23 09:19:25;;;;;;;;;;;;;;;24.10;49.27;99457.19;5032218;28;19926;-77
2023/10/23 09:21:52;;;;;;;;;;;;;;;24.23;48.14;99451.69;5026763;28;19917;-72
2023/10/23 09:24:17;;;;;;;;;;;;;;;24.38;47.18;99448.66;5018176;28;19918;-74
2023/10/23 09:26:44;;;;;;;;;;;;;;;24.54;47.62;99457.38;5026997;28;19924;-75
2023/10/23 09:29:09;;;;;;;;;;;;;;;24.67;47.32;99453.94;5027181;28;20011;-75
2023/10/23 09:31:34;;;;;;;;;;;;;;;24.71;49.28;99453.88;5014918;28;20005;-75
2023/10/23 09:34:00;;;;;;;;;;;;;;;24.81;48.65;99448.00;5029584;28;20308;-75
2023/10/23 09:36:25;;;;;;;;;;;;;;;24.83;47.08;99446.75;5027737;28;19992;-76
2023/10/23 09:38:58;;;;;;;;;;;;;;;24.76;47.00;99445.63;5021971;28;19925;-76
2023/10/23 09:41:25;;;;;;;;;;;;;;;24.52;46.83;99441.91;5018367;28;19957;-76
2023/10/23 09:43:51;;;;;;;;;;;;;;;24.88;48.13;99437.69;5029253;28;19913;-76
2023/10/23 09:46:25;;;;;;;;;;;;;;;25.08;46.98;99441.41;5010952;28;19979;-78
2023/10/23 09:48:52;;;;;;;;;;;;;;;25.09;47.04;99450.81;5010626;28;19922;-76
2023/10/23 09:51:18;;;;;;;;;;;;;;;25.28;46.65;99440.66;5030195;28;19921;-76
2023/10/23 09:54:00;;;;;;;;;;;;;;;25.46;45.76;99437.44;5024211;28;19917;-76
2023/10/23 09:56:30;;;;;;;;;;;;;;;25.63;46.05;99431.84;5021275;28;19917;-77
2023/10/23 09:59:04;;;;;;;;;;;;;;;25.60;46.12;99422.09;5020896;28;20648;-75
2023/10/23 10:01:38;;;;;;;;;;;;;;;25.79;45.23;99422.50;5025214;28;19917;-75
2023/10/23 10:04:09;;;;;;;;;;;;;;;25.59;45.20;99422.50;5027864;28;19921;-75
2023/10/23 10:06:37;;;;;;;;;;;;;;;25.02;45.11;99420.28;5031285;28;19914;-75
2023/10/23 10:09:07;;;;;;;;;;;;;;;25.08;45.96;99409.94;5030533;28;19967;-75
2023/10/23 10:11:33;;;;;;;;;;;;;;;24.99;46.12;99412.56;5017348;28;20258;-76
2023/10/23 10:13:59;;;;;;;;;;;;;;;25.08;46.80;99403.41;5011487;28;19917;-76
2023/10/23 10:16:24;;;;;;;;;;;;;;;25.12;46.43;99411.94;5014194;28;19958;-75
2023/10/23 10:18:50;;;;;;;;;;;;;;;25.17;46.90;99406.53;5016993;28;20003;-75
2023/10/23 10:21:19;;;;;;;;;;;;;;;25.36;46.07;99396.34;5011463;28;19944;-75
2023/10/23 10:23:45;;;;;;;;;;;;;;;25.68;44.79;99388.38;5011695;28;20007;-74
2023/10/23 10:26:10;;;;;;;;;;;;;;;25.75;45.14;99382.47;5024058;28;20019;-74
2023/10/23 10:28:38;;;;;;;;;;;;;;;25.86;43.98;99382.25;5028739;28;19917;-75
2023/10/23 10:31:04;;;;;;;;;;;;;;;26.01;42.55;99385.63;5024954;28;19920;-75
2023/10/23 10:33:30;;;;;;;;;;;;;;;26.14;43.14;99385.72;5032225;28;19917;-75
2023/10/23 10:35:59;;;;;;;;;;;;;;;26.27;42.97;99379.34;5038007;28;19917;-75
2023/10/23 10:38:25;;;;;;;;;;;;;;;26.06;42.27;99370.75;5034620;28;19961;-75
2023/10/23 10:41:01;;;;;;;;;;;;;;;26.30;42.77;99375.56;5027409;28;19960;-75
2023/10/23 10:43:31;;;;;;;;;;;;;;;26.55;42.40;99371.31;5017865;28;19967;-75
2023/10/23 10:45:56;;;;;;;;;;;;;;;26.60;41.97;99373.63;5018488;28;19924;-75
2023/10/23 10:48:22;;;;;;;;;;;;;;;26.62;41.58;99362.50;5020533;28;20308;-75
2023/10/23 10:50:48;;;;;;;;;;;;;;;26.60;42.63;99360.06;5020382;28;20335;-74
2023/10/23 10:53:14;;;;;;;;;;;;;;;26.58;42.77;99353.19;5034787;28;20383;-75
2023/10/23 10:55:39;;;;;;;;;;;;;;;26.49;42.72;99348.88;5029624;28;19917;-74
2023/10/23 10:58:06;;;;;;;;;;;;;;;26.69;42.50;99353.72;5025488;28;19949;-75
2023/10/23 11:00:32;;;;;;;;;;;;;;;27.02;41.50;99345.09;5032673;28;19930;-75
2023/10/23 11:02:58;;;;;;;;;;;;;;;26.91;39.67;99339.66;5031618;28;19921;-74
2023/10/23 11:05:23;;;;;;;;;;;;;;;27.17;40.56;99338.97;5026824;28;20504;-74
2023/10/23 11:07:51;;;;;;;;;;;;;;;27.22;40.47;99341.28;5023558;28;19917;-74
2023/10/23 11:10:16;;;;;;;;;;;;;;;27.26;39.51;99335.44;5029251;28;20422;-73
2023/10/23 11:12:41;;;;;;;;;;;;;;;27.38;38.88;99339.59;5023238;28;20020;-74
2023/10/23 11:15:07;;;;;;;;;;;;;;;27.38;39.16;99330.97;5029800;28;19960;-74
2023/10/23 11:17:32;;;;;;;;;;;;;;;27.27;38.39;99337.03;5024999;28;20249;-75
2023/10/23 11:19:58;;;;;;;;;;;;;;;27.43;38.24;99339.06;5036673;28;19928;-75
2023/10/23 11:22:25;;;;;;;;;;;;;;;27.46;37.71;99329.53;5017632;28;19936;-75
2023/10/23 11:24:51;;;;;;;;;;;;;;;27.58;38.58;99325.91;5031796;28;19928;-75
2023/10/23 11:27:16;;;;;;;;;;;;;;;27.60;38.39;99319.72;5028890;28;19925;-74
2023/10/23 11:29:41;;;;;;;;;;;;;;;27.44;38.57;99320.56;5017444;28;19992;-75
2023/10/23 11:32:07;;;;;;;;;;;;;;;27.61;37.95;99313.50;5028100;28;20449;-75
2023/10/23 11:34:32;;;;;;;;;;;;;;;27.70;37.85;99321.47;5019832;28;19917;-74
2023/10/23 11:37:00;;;;;;;;;;;;;;;27.73;37.93;99320.53;5013690;28;19924;-74
2023/10/23 11:39:27;;;;;;;;;;;;;;;27.55;37.59;99318.22;5020261;28;20448;-75
2023/10/23 11:41:56;;;;;;;;;;;;;;;27.69;37.48;99319.03;5014064;28;19925;-73
2023/10/23 11:44:22;;;;;;;;;;;;;;;27.82;36.29;99319.84;5013263;28;19914;-76
2023/10/23 11:46:47;;;;;;;;;;;;;;;27.94;36.59;99309.63;5013880;28;20297;-76
2023/10/23 11:49:13;;;;;;;;;;;;;;;27.83;37.25;99315.72;5022337;28;19921;-75
2023/10/23 11:51:38;;;;;;;;;;;;;;;28.00;36.66;99307.78;5029218;28;19937;-75
2023/10/23 11:54:04;;;;;;;;;;;;;;;28.08;36.17;99313.31;5021284;28;19921;-75
2023/10/23 11:56:30;;;;;;;;;;;;;;;28.18;36.03;99309.31;5017463;28;20308;-75
2023/10/23 11:58:55;;;;;;;;;;;;;;;28.19;35.39;99310.09;5023462;28;19940;-75
2023/10/23 12:01:20;;;;;;;;;;;;;;;28.23;35.79;99307.91;5023585;28;19924;-76
2023/10/23 12:03:46;;;;;;;;;;;;;;;28.36;35.88;99302.16;5033611;28;19919;-76
2023/10/23 12:06:11;;;;;;;;;;;;;;;28.35;34.44;99294.81;5031396;28;19917;-74
2023/10/23 12:08:36;;;;;;;;;;;;;;;28.36;34.88;99300.09;5028855;28;19928;-73
2023/10/23 12:11:02;;;;;;;;;;;;;;;28.24;35.02;99298.03;5023877;28;19933;-76
2023/10/23 12:13:28;;;;;;;;;;;;;;;28.38;35.35;99297.56;5033312;28;20304;-77
2023/10/23 12:15:53;;;;;;;;;;;;;;;28.48;35.12;99300.50;5016389;28;19921;-76
2023/10/23 12:18:19;;;;;;;;;;;;;;;28.40;35.22;99295.03;5031238;28;19921;-76
2023/10/23 12:20:44;;;;;;;;;;;;;;;28.42;34.99;99286.72;5017374;28;19975;-76
2023/10/23 12:23:09;;;;;;;;;;;;;;;28.60;33.98;99296.84;5016313;28;19931;-74
2023/10/23 12:25:34;;;;;;;;;;;;;;;28.59;33.96;99293.13;5018730;28;19923;-77
2023/10/23 12:28:00;;;;;;;;;;;;;;;28.56;34.00;99293.25;5022636;28;20027;-77
2023/10/23 12:30:25;;;;;;;;;;;;;;;28.41;33.94;99293.75;5025090;28;19971;-74
2023/10/23 12:32:51;;;;;;;;;;;;;;;28.45;33.93;99290.75;5024855;28;19944;-80
2023/10/23 12:35:16;;;;;;;;;;;;;;;28.36;34.01;99291.47;5026330;28;20465;-74
2023/10/23 12:37:42;;;;;;;;;;;;;;;28.38;34.22;99285.25;5023557;28;19990;-74
2023/10/23 12:40:10;;;;;;;;;;;;;;;28.44;33.94;99283.41;5022576;28;19945;-73